Time;durP1;ratioP1;P1;durP2;ratioP2;P2;SDS_P1;SDS_P2;PMS_P1;PMS_P2;Temp;Humidity;BMP_temperature;BMP_pressure;BME280_temperature;BME280_humidity;BME280_pressure;Samples;Min_cycle;Max_cycle;Signal;HPM_P1;HPM_P2
2023/09/08 00:00:01;;;;;;;4.73;3.83;;;;;;;23.96;64.05;99926.91;4991618;28;20202;-68
2023/09/08 00:02:29;;;;;;;3.83;3.53;;;;;;;24.03;64.13;99924.75;4991217;28;20794;-68
2023/09/08 00:04:56;;;;;;;4.23;3.63;;;;;;;24.07;63.77;99927.72;4996085;28;20192;-69
2023/09/08 00:07:22;;;;;;;4.10;3.70;;;;;;;24.07;63.47;99922.31;5020717;28;20191;-68
2023/09/08 00:09:49;;;;;;;3.43;3.23;;;;;;;24.06;64.18;99916.03;5035018;28;20259;-68
2023/09/08 00:12:17;;;;;;;5.73;4.03;;;;;;;24.08;64.15;99918.50;5024566;28;20260;-68
2023/09/08 00:14:44;;;;;;;4.17;3.87;;;;;;;24.08;64.80;99913.88;4995338;28;20201;-68
2023/09/08 00:17:11;;;;;;;3.63;3.43;;;;;;;24.09;64.32;99931.78;4994891;28;20333;-68
2023/09/08 00:19:38;;;;;;;5.90;3.90;;;;;;;24.07;65.03;99917.69;4995056;28;20252;-68
2023/09/08 00:22:06;;;;;;;3.93;3.70;;;;;;;24.03;65.92;99924.75;4997066;28;20224;-68
2023/09/08 00:24:33;;;;;;;5.13;4.10;;;;;;;24.02;65.75;99920.38;5014830;28;20211;-68
2023/09/08 00:27:00;;;;;;;4.80;4.10;;;;;;;24.01;66.59;99913.34;5014658;28;20395;-69
2023/09/08 00:29:28;;;;;;;5.17;4.40;;;;;;;23.97;65.93;99909.53;5014416;28;20197;-68
2023/09/08 00:31:54;;;;;;;4.93;3.83;;;;;;;24.01;65.55;99912.53;5013526;28;20197;-70
2023/09/08 00:34:21;;;;;;;4.23;3.83;;;;;;;23.94;67.00;99912.78;5014844;28;20233;-68
2023/09/08 00:36:48;;;;;;;4.90;4.10;;;;;;;23.94;66.96;99915.50;5014802;28;20330;-68
2023/09/08 00:39:14;;;;;;;7.37;3.87;;;;;;;23.92;68.45;99904.13;5014562;28;20192;-69
2023/09/08 00:41:41;;;;;;;4.37;4.07;;;;;;;23.91;68.94;99910.66;5014427;28;20318;-68
2023/09/08 00:44:08;;;;;;;6.13;3.70;;;;;;;23.87;69.50;99906.00;4995759;28;20251;-68
2023/09/08 00:46:37;;;;;;;6.40;3.87;;;;;;;23.85;69.57;99910.91;4994663;28;20242;-68
2023/09/08 00:49:04;;;;;;;4.33;3.93;;;;;;;23.80;70.06;99917.13;4994281;28;20248;-67
2023/09/08 00:51:30;;;;;;;4.20;3.80;;;;;;;23.76;69.68;99917.94;4994548;28;20259;-67
2023/09/08 00:53:57;;;;;;;6.43;4.70;;;;;;;23.67;69.90;99920.38;4994729;28;20252;-67
2023/09/08 00:56:24;;;;;;;4.90;4.43;;;;;;;23.62;70.82;99901.41;4994707;28;20271;-67
2023/09/08 00:58:51;;;;;;;5.47;4.40;;;;;;;23.57;71.83;99906.78;4994394;28;20623;-68
2023/09/08 01:01:18;;;;;;;6.07;4.40;;;;;;;23.47;72.84;99895.13;4994578;28;20254;-68
2023/09/08 01:03:46;;;;;;;4.83;4.33;;;;;;;23.42;73.49;99887.00;4994076;28;20233;-68
2023/09/08 01:06:14;;;;;;;4.63;4.23;;;;;;;23.41;74.29;99880.78;4994591;28;20254;-68
2023/09/08 01:08:41;;;;;;;4.67;4.20;;;;;;;23.39;74.63;99893.78;5027304;28;20226;-68
2023/09/08 01:11:08;;;;;;;4.90;4.27;;;;;;;23.37;74.86;99890.53;5026726;28;20187;-68
2023/09/08 01:13:34;;;;;;;6.10;5.37;;;;;;;23.36;75.24;99888.09;5014030;28;20224;-68
2023/09/08 01:16:02;;;;;;;7.77;5.33;;;;;;;23.31;75.55;99886.16;5013580;28;20204;-68
2023/09/08 01:18:28;;;;;;;9.60;6.07;;;;;;;23.29;76.32;99877.50;5013809;28;20258;-68
2023/09/08 01:21:28;;;;;;;5.93;5.23;;;;;;;23.28;76.83;99873.13;5009409;28;20232;-68
2023/09/08 01:24:12;;;;;;;8.43;6.20;;;;;;;23.24;77.51;99869.34;5006443;28;20246;-68
2023/09/08 01:26:42;;;;;;;9.33;5.10;;;;;;;23.05;78.17;99868.22;5013586;28;20235;-69
2023/09/08 01:29:11;;;;;;;6.07;5.57;;;;;;;22.95;78.64;99870.09;5013218;28;20242;-69
2023/09/08 01:31:39;;;;;;;5.83;5.10;;;;;;;22.94;79.26;99871.97;5011946;28;20202;-69
2023/09/08 01:34:06;;;;;;;5.80;5.40;;;;;;;22.96;79.68;99866.28;5013127;28;20321;-68
2023/09/08 01:36:33;;;;;;;5.57;5.17;;;;;;;22.95;79.65;99876.28;5013222;28;20191;-68
2023/09/08 01:39:00;;;;;;;6.03;5.63;;;;;;;22.98;79.37;99870.34;5012987;28;20192;-68
2023/09/08 01:41:27;;;;;;;5.33;5.00;;;;;;;22.95;79.06;99867.38;5004968;28;20279;-68
2023/09/08 01:43:55;;;;;;;8.43;5.50;;;;;;;22.93;79.43;99869.53;4993179;28;20289;-68
2023/09/08 01:46:22;;;;;;;6.83;5.00;;;;;;;22.79;80.04;99871.13;4993598;28;20280;-68
2023/09/08 01:48:48;;;;;;;5.73;5.10;;;;;;;22.71;80.23;99875.13;4993623;28;20192;-68
2023/09/08 01:51:15;;;;;;;6.87;6.10;;;;;;;22.61;80.37;99874.28;5011597;28;20276;-69
2023/09/08 01:53:42;;;;;;;7.03;6.33;;;;;;;22.47;80.82;99868.56;5012908;28;20254;-69
2023/09/08 01:56:08;;;;;;;6.87;5.80;;;;;;;22.39;81.49;99870.91;5012952;28;20198;-68
2023/09/08 01:58:35;;;;;;;6.63;6.13;;;;;;;22.30;82.92;99873.28;5012869;28;20249;-68
2023/09/08 02:01:05;;;;;;;6.70;6.20;;;;;;;22.23;83.94;99875.44;4996169;28;20199;-68
2023/09/08 02:03:32;;;;;;;8.93;6.70;;;;;;;22.15;85.89;99875.94;4993233;28;20274;-67
2023/09/08 02:05:59;;;;;;;7.83;7.13;;;;;;;22.02;86.83;99876.38;4993202;28;20195;-67
2023/09/08 02:08:25;;;;;;;7.57;6.87;;;;;;;22.00;87.50;99872.28;5022127;28;20194;-67
2023/09/08 02:10:52;;;;;;;8.83;7.30;;;;;;;21.95;87.89;99874.97;5016138;28;20235;-67
2023/09/08 02:13:19;;;;;;;10.73;7.20;;;;;;;21.87;89.18;99873.56;5012678;28;20585;-68
2023/09/08 02:15:45;;;;;;;15.40;7.07;;;;;;;21.81;89.78;99869.19;5012467;28;20552;-67
2023/09/08 02:18:13;;;;;;;10.00;6.67;;;;;;;21.80;89.84;99878.38;5005484;28;20253;-67
2023/09/08 02:20:40;;;;;;;9.20;7.60;;;;;;;21.79;90.02;99875.94;4992819;28;20294;-67
2023/09/08 02:23:07;;;;;;;8.83;7.40;;;;;;;21.74;90.40;99868.63;4999655;28;20271;-68
2023/09/08 02:25:34;;;;;;;13.87;7.77;;;;;;;21.73;90.51;99871.56;5012055;28;20193;-68
2023/09/08 02:28:01;;;;;;;9.00;7.53;;;;;;;21.65;90.91;99870.13;5006929;28;20187;-67
2023/09/08 02:30:27;;;;;;;10.40;8.07;;;;;;;21.61;91.45;99862.78;4992535;28;20190;-67
2023/09/08 02:32:55;;;;;;;9.33;7.27;;;;;;;21.56;92.24;99862.75;4992727;28;20227;-67
2023/09/08 02:35:24;;;;;;;10.60;8.43;;;;;;;21.55;92.54;99856.53;4992449;28;20198;-68
2023/09/08 02:37:50;;;;;;;8.40;7.63;;;;;;;21.60;93.08;99863.88;4994262;28;20256;-67
2023/09/08 02:40:17;;;;;;;10.10;8.87;;;;;;;21.65;92.49;99862.03;5011331;28;20197;-67
2023/09/08 02:42:44;;;;;;;9.60;8.60;;;;;;;21.75;92.18;99859.41;5012178;28;20284;-68
2023/09/08 02:45:11;;;;;;;14.43;7.60;;;;;;;21.81;91.68;99861.06;5011899;28;20197;-67
2023/09/08 02:47:38;;;;;;;11.10;7.10;;;;;;;21.85;91.70;99854.06;5011344;28;20198;-67
2023/09/08 02:50:06;;;;;;;12.77;8.13;;;;;;;21.85;91.16;99851.34;4992002;28;20191;-68
2023/09/08 02:52:34;;;;;;;9.77;7.57;;;;;;;21.78;91.92;99856.19;4992082;28;20690;-67
2023/09/08 02:55:01;;;;;;;12.67;8.60;;;;;;;21.77;91.78;99851.88;4992162;28;20195;-68
2023/09/08 02:57:28;;;;;;;11.77;9.00;;;;;;;21.84;91.61;99852.44;4992296;28;20195;-67
2023/09/08 02:59:56;;;;;;;12.33;8.37;;;;;;;21.89;91.32;99855.19;4993031;28;20199;-68
2023/09/08 03:02:23;;;;;;;9.37;8.43;;;;;;;21.94;90.98;99857.94;4991290;28;20583;-68
2023/09/08 03:04:49;;;;;;;10.80;8.30;;;;;;;21.95;90.49;99858.72;4991589;28;20241;-67
2023/09/08 03:07:16;;;;;;;8.73;7.97;;;;;;;21.90;90.99;99856.81;5001872;28;20251;-67
2023/09/08 03:09:44;;;;;;;14.80;8.97;;;;;;;21.81;91.21;99854.88;5013261;28;20194;-67
2023/09/08 03:12:11;;;;;;;10.00;9.00;;;;;;;21.71;91.07;99861.00;5011373;28;20194;-67
2023/09/08 03:14:37;;;;;;;10.73;8.00;;;;;;;21.61;91.41;99858.22;5010813;28;20254;-67
2023/09/08 03:17:04;;;;;;;9.47;8.50;;;;;;;21.60;92.76;99869.28;5011392;28;20194;-67
2023/09/08 03:19:31;;;;;;;10.20;7.97;;;;;;;21.67;93.05;99867.97;4996540;28;20198;-67
2023/09/08 03:21:58;;;;;;;11.13;8.97;;;;;;;21.74;92.14;99868.63;4991832;28;20253;-68
2023/09/08 03:24:25;;;;;;;10.23;8.47;;;;;;;21.82;92.12;99868.13;4991015;28;20234;-68
2023/09/08 03:26:53;;;;;;;9.23;8.53;;;;;;;21.88;91.50;99858.97;4996095;28;20279;-68
2023/09/08 03:29:19;;;;;;;9.30;8.13;;;;;;;21.90;90.98;99859.53;5010545;28;20189;-66
2023/09/08 03:31:46;;;;;;;13.80;8.10;;;;;;;21.97;91.71;99862.81;5011214;28;20233;-67
2023/09/08 03:34:13;;;;;;;14.60;8.87;;;;;;;22.11;90.64;99866.69;4998126;28;20234;-68
2023/09/08 03:36:40;;;;;;;8.37;7.70;;;;;;;22.20;90.41;99873.25;4991015;28;20210;-67
2023/09/08 03:39:09;;;;;;;17.57;8.60;;;;;;;22.26;89.48;99872.19;4990985;28;20191;-68
2023/09/08 03:41:35;;;;;;;14.63;8.57;;;;;;;22.33;89.34;99866.56;4999492;28;20204;-68
2023/09/08 03:44:04;;;;;;;23.03;10.57;;;;;;;22.32;89.15;99864.91;4995917;28;20222;-67
2023/09/08 03:46:30;;;;;;;11.97;8.37;;;;;;;22.35;89.80;99873.34;4995286;28;20203;-67
2023/09/08 03:49:00;;;;;;;12.83;8.63;;;;;;;22.38;89.26;99874.69;4994779;28;20199;-67
2023/09/08 03:51:27;;;;;;;18.63;8.33;;;;;;;22.37;89.17;99863.03;4995412;28;20278;-67
2023/09/08 03:53:54;;;;;;;10.80;8.13;;;;;;;22.35;89.77;99861.69;5007710;28;20248;-68
2023/09/08 03:56:21;;;;;;;11.23;8.17;;;;;;;22.34;89.26;99868.97;5014747;28;20240;-67
2023/09/08 03:58:49;;;;;;;13.83;8.77;;;;;;;22.35;89.48;99870.63;5014395;28;20281;-66
2023/09/08 04:01:17;;;;;;;19.03;9.50;;;;;;;22.34;89.50;99877.09;5014198;28;20190;-69
2023/09/08 04:03:44;;;;;;;11.60;8.93;;;;;;;22.28;89.40;99875.44;5013154;28;20584;-67
2023/09/08 04:06:11;;;;;;;18.33;9.70;;;;;;;22.21;90.17;99869.44;5014718;28;20277;-66
2023/09/08 04:08:37;;;;;;;15.07;8.73;;;;;;;22.13;89.44;99872.66;5030430;28;20198;-67
2023/09/08 04:11:04;;;;;;;12.37;8.23;;;;;;;22.01;89.65;99869.31;5034373;28;20197;-66
2023/09/08 04:13:31;;;;;;;20.10;8.67;;;;;;;22.05;90.75;99875.06;5031129;28;20277;-67
2023/09/08 04:15:57;;;;;;;13.63;8.50;;;;;;;22.11;89.38;99876.69;5014708;28;20271;-67
2023/09/08 04:18:25;;;;;;;20.10;9.20;;;;;;;22.08;89.52;99880.75;5014147;28;20899;-67
2023/09/08 04:20:52;;;;;;;14.83;8.20;;;;;;;22.00;89.10;99889.34;5019328;28;20248;-67
2023/09/08 04:23:19;;;;;;;18.33;9.33;;;;;;;22.00;90.20;99883.94;5014131;28;20218;-68
2023/09/08 04:25:46;;;;;;;32.33;9.87;;;;;;;22.16;90.63;99885.66;5012677;28;20194;-67
2023/09/08 04:28:13;;;;;;;18.00;9.97;;;;;;;22.30;88.54;99894.94;5014610;28;20253;-67
2023/09/08 04:30:40;;;;;;;17.10;8.63;;;;;;;22.51;88.58;99896.72;5014189;28;20198;-67
2023/09/08 04:33:06;;;;;;;17.93;8.80;;;;;;;22.63;87.67;99894.63;5002632;28;20281;-68
2023/09/08 04:35:34;;;;;;;11.63;8.70;;;;;;;22.58;86.67;99897.28;4994499;28;20199;-68
2023/09/08 04:38:01;;;;;;;8.13;6.63;;;;;;;22.56;88.22;99899.47;4994165;28;20195;-68
2023/09/08 04:40:28;;;;;;;10.67;7.43;;;;;;;22.72;86.14;99913.88;5010768;28;20577;-68
2023/09/08 04:42:55;;;;;;;20.17;8.90;;;;;;;23.08;83.95;99912.94;5013548;28;20645;-67
2023/09/08 04:45:22;;;;;;;16.80;9.10;;;;;;;23.30;83.17;99911.66;5012954;28;20686;-67
2023/09/08 04:47:49;;;;;;;11.03;8.50;;;;;;;23.54;80.85;99929.06;4998557;28;20581;-67
2023/09/08 04:50:16;;;;;;;30.47;10.23;;;;;;;23.59;80.67;99920.09;4993031;28;20203;-65
2023/09/08 04:52:44;;;;;;;16.40;7.63;;;;;;;23.57;81.85;99914.94;4998402;28;20575;-65
2023/09/08 04:55:11;;;;;;;15.67;9.20;;;;;;;23.52;81.00;99931.22;4992949;28;20251;-65
2023/09/08 04:57:38;;;;;;;15.40;8.23;;;;;;;23.36;80.75;99910.56;4994215;28;20259;-66
2023/09/08 05:00:06;;;;;;;14.83;8.57;;;;;;;23.20;80.68;99916.25;4993684;28;20209;-65
2023/09/08 05:02:33;;;;;;;9.23;8.33;;;;;;;23.08;80.57;99923.78;4993734;28;20690;-65
2023/09/08 05:05:00;;;;;;;9.27;6.67;;;;;;;22.93;79.10;99911.00;4993666;28;20200;-66
2023/09/08 05:07:27;;;;;;;8.00;6.13;;;;;;;22.86;77.12;99926.66;5004455;28;20193;-65
2023/09/08 05:09:55;;;;;;;14.90;6.80;;;;;;;22.87;76.48;99933.72;5019318;28;20745;-65
2023/09/08 05:12:21;;;;;;;13.73;6.80;;;;;;;22.94;76.83;99925.34;5012181;28;20199;-66
2023/09/08 05:14:48;;;;;;;14.07;6.47;;;;;;;22.98;76.90;99932.69;5011069;28;20787;-65
2023/09/08 05:17:15;;;;;;;11.77;6.70;;;;;;;23.01;76.20;99934.03;5012826;28;20235;-66
2023/09/08 05:19:42;;;;;;;13.33;6.80;;;;;;;23.05;76.53;99941.38;5012581;28;20195;-65
2023/09/08 05:22:08;;;;;;;8.97;6.63;;;;;;;23.23;77.52;99938.19;5013076;28;20617;-66
2023/09/08 05:24:35;;;;;;;17.27;7.70;;;;;;;23.58;77.67;99935.56;5012554;28;20711;-66
2023/09/08 05:27:04;;;;;;;15.43;7.63;;;;;;;24.11;76.96;99934.25;5012396;28;20195;-67
2023/09/08 05:29:30;;;;;;;16.40;7.90;;;;;;;24.74;75.42;99939.00;5012511;28;20196;-67
2023/09/08 05:31:57;;;;;;;19.23;7.90;;;;;;;25.37;73.09;99938.19;5012599;28;20192;-68
2023/09/08 05:34:24;;;;;;;14.33;7.70;;;;;;;25.90;69.86;99945.44;5012774;28;20272;-67
2023/09/08 05:36:50;;;;;;;11.67;6.70;;;;;;;26.40;66.92;99949.63;5012551;28;20198;-68
2023/09/08 05:39:18;;;;;;;16.53;6.57;;;;;;;26.59;66.02;99950.53;5011643;28;20198;-67
2023/09/08 05:41:45;;;;;;;13.03;6.70;;;;;;;26.89;64.17;99959.19;5012382;28;20289;-68
2023/09/08 05:44:13;;;;;;;7.37;6.73;;;;;;;27.06;63.93;99966.88;5012175;28;20309;-67
2023/09/08 05:46:40;;;;;;;7.33;6.63;;;;;;;27.24;62.94;99963.41;5012144;28;20285;-68
2023/09/08 05:49:07;;;;;;;9.60;6.60;;;;;;;27.17;62.98;99965.66;5011689;28;20198;-67
2023/09/08 05:51:33;;;;;;;11.27;6.00;;;;;;;27.45;63.03;99964.75;5012234;28;20232;-67
2023/09/08 05:54:00;;;;;;;10.33;6.73;;;;;;;28.06;60.99;99973.66;5012227;28;20623;-67
2023/09/08 05:56:31;;;;;;;10.63;6.73;;;;;;;28.57;58.39;99986.16;5011553;28;20736;-68
2023/09/08 05:58:58;;;;;;;26.43;7.77;;;;;;;28.93;58.19;99987.09;5011978;28;20273;-68
2023/09/08 06:01:26;;;;;;;19.77;7.53;;;;;;;28.98;56.40;99977.97;5011547;28;20193;-68
2023/09/08 06:03:54;;;;;;;11.07;7.00;;;;;;;29.06;56.71;99974.56;5010990;28;20311;-67
2023/09/08 06:06:21;;;;;;;7.30;6.10;;;;;;;29.51;54.64;99987.25;5012085;28;20221;-66
2023/09/08 06:08:47;;;;;;;7.03;6.30;;;;;;;29.46;52.83;99961.91;5028874;28;20193;-68
2023/09/08 06:11:14;;;;;;;19.53;7.50;;;;;;;29.33;53.97;99971.78;5031158;28;20193;-66
2023/09/08 06:13:42;;;;;;;11.30;6.20;;;;;;;28.97;54.95;99973.63;5031354;28;20193;-68
2023/09/08 06:16:08;;;;;;;15.10;7.87;;;;;;;28.68;55.81;99973.94;5031166;28;20687;-68
2023/09/08 06:18:39;;;;;;;8.70;6.83;;;;;;;28.50;56.88;99971.28;5030964;28;20194;-66
2023/09/08 06:21:06;;;;;;;11.13;6.80;;;;;;;28.56;57.57;99967.31;5031322;28;20193;-68
2023/09/08 06:23:33;;;;;;;11.77;7.03;;;;;;;29.07;56.79;99971.50;5030994;28;20252;-67
2023/09/08 06:26:01;;;;;;;19.63;7.60;;;;;;;29.68;53.22;99981.16;5031341;28;20197;-67
2023/09/08 06:28:27;;;;;;;11.53;6.40;;;;;;;29.60;52.38;99984.63;5030902;28;20252;-68
2023/09/08 06:30:55;;;;;;;7.53;6.47;;;;;;;29.50;53.20;99996.59;5013313;28;20204;-66
2023/09/08 06:33:22;;;;;;;24.43;7.33;;;;;;;29.68;52.96;99995.66;5031233;28;20672;-69
2023/09/08 06:35:50;;;;;;;6.23;5.73;;;;;;;29.86;53.14;99993.88;5031821;28;20199;-67
2023/09/08 06:38:17;;;;;;;12.77;6.67;;;;;;;30.23;52.03;99999.00;5031175;28;20251;-68
2023/09/08 06:40:43;;;;;;;18.77;7.33;;;;;;;30.39;51.10;99992.84;5031372;28;20251;-67
2023/09/08 06:43:10;;;;;;;8.53;7.43;;;;;;;30.44;50.54;99998.19;5031507;28;20201;-69
2023/09/08 06:45:38;;;;;;;12.27;6.67;;;;;;;30.61;48.99;100001.00;5031346;28;20201;-68
2023/09/08 06:48:06;;;;;;;8.67;6.90;;;;;;;30.89;49.10;100001.66;5030827;28;20189;-68
2023/09/08 06:50:32;;;;;;;9.20;6.43;;;;;;;31.07;49.31;100004.13;5030489;28;20680;-68
2023/09/08 06:53:01;;;;;;;11.17;6.60;;;;;;;31.27;48.33;99997.31;5030721;28;20725;-68
2023/09/08 06:55:27;;;;;;;8.10;7.30;;;;;;;31.60;48.74;99999.28;5030407;28;20288;-69
2023/09/08 06:57:54;;;;;;;8.07;6.30;;;;;;;31.74;45.96;100008.19;5030733;28;20192;-68
2023/09/08 07:00:21;;;;;;;14.93;6.10;;;;;;;31.42;47.03;100000.41;5030547;28;20220;-68
2023/09/08 07:02:49;;;;;;;13.60;6.67;;;;;;;31.23;48.81;99999.84;5030484;28;20197;-68
2023/09/08 07:05:16;;;;;;;7.23;6.53;;;;;;;31.30;47.88;100002.13;5031143;28;20236;-67
2023/09/08 07:07:43;;;;;;;14.93;6.60;;;;;;;31.64;46.53;100008.50;5022117;28;20217;-67
2023/09/08 07:10:12;;;;;;;7.67;5.90;;;;;;;32.07;45.54;100006.59;5010970;28;20194;-67
2023/09/08 07:12:39;;;;;;;5.90;5.33;;;;;;;32.22;43.53;100013.53;5011010;28;20256;-67
2023/09/08 07:15:06;;;;;;;30.47;7.10;;;;;;;32.55;44.16;100014.63;5010836;28;20252;-67
2023/09/08 07:17:33;;;;;;;9.83;5.40;;;;;;;32.69;43.28;100004.22;5011484;28;20272;-67
2023/09/08 07:19:59;;;;;;;8.07;5.87;;;;;;;32.53;43.00;100003.94;5011253;28;20194;-69
2023/09/08 07:22:26;;;;;;;5.73;5.20;;;;;;;32.34;42.73;100000.75;5010805;28;20197;-67
2023/09/08 07:24:53;;;;;;;8.33;5.70;;;;;;;31.77;44.94;100004.81;5010663;28;20291;-67
2023/09/08 07:27:21;;;;;;;7.73;5.60;;;;;;;31.81;44.39;100003.03;5010472;28;20194;-67
2023/09/08 07:29:49;;;;;;;8.77;5.37;;;;;;;31.85;42.78;100004.00;5010568;28;20198;-67
2023/09/08 07:32:16;;;;;;;6.23;5.10;;;;;;;31.68;43.43;100003.19;5010978;28;20194;-68
2023/09/08 07:34:43;;;;;;;11.33;5.00;;;;;;;31.45;44.04;99996.19;5010563;28;20273;-69
2023/09/08 07:37:10;;;;;;;9.70;5.37;;;;;;;31.61;43.52;100000.88;5010740;28;20248;-68
2023/09/08 07:39:36;;;;;;;7.53;4.77;;;;;;;31.43;42.49;99991.00;5010186;28;20244;-68
2023/09/08 07:42:03;;;;;;;10.00;4.63;;;;;;;31.67;41.29;99987.78;5010199;28;20257;-67
2023/09/08 07:44:31;;;;;;;8.37;5.03;;;;;;;31.83;40.16;99989.78;5010101;28;20706;-67
2023/09/08 07:46:58;;;;;;;5.13;4.63;;;;;;;32.02;39.32;99992.19;5010569;28;20193;-67
2023/09/08 07:49:25;;;;;;;4.97;4.20;;;;;;;32.22;38.89;99986.03;5010388;28;20346;-67
2023/09/08 07:51:51;;;;;;;5.53;4.50;;;;;;;32.61;37.74;99983.03;5011072;28;20553;-68
2023/09/08 07:54:18;;;;;;;6.27;4.13;;;;;;;32.78;36.36;99980.19;5010429;28;20309;-69
2023/09/08 07:56:45;;;;;;;6.03;4.00;;;;;;;32.35;36.34;99985.06;5010795;28;20194;-69
2023/09/08 07:59:11;;;;;;;6.23;4.40;;;;;;;32.23;35.91;99982.97;5010684;28;20260;-66
2023/09/08 08:01:39;;;;;;;4.73;4.33;;;;;;;32.09;36.61;99979.56;5010765;28;20252;-67
2023/09/08 08:04:06;;;;;;;4.70;3.93;;;;;;;32.05;35.78;99977.81;5010108;28;20226;-67
2023/09/08 08:06:33;;;;;;;4.33;3.80;;;;;;;32.26;35.93;99976.00;5010721;28;20220;-68
2023/09/08 08:08:59;;;;;;;13.93;4.77;;;;;;;32.44;35.65;99974.84;5029344;28;20566;-67
2023/09/08 08:11:26;;;;;;;4.97;4.17;;;;;;;32.49;35.21;99975.47;5030287;28;20267;-68
2023/09/08 08:13:53;;;;;;;5.07;4.50;;;;;;;32.80;34.97;99970.53;5030408;28;20193;-67
2023/09/08 08:16:21;;;;;;;10.80;4.40;;;;;;;33.10;33.74;99971.34;5029767;28;20189;-67
2023/09/08 08:18:50;;;;;;;4.00;3.60;;;;;;;33.27;34.36;99973.97;5029951;28;20194;-67
2023/09/08 08:21:16;;;;;;;4.83;3.70;;;;;;;33.39;33.67;99981.56;5029517;28;20781;-69
2023/09/08 08:23:43;;;;;;;4.10;3.70;;;;;;;32.97;33.05;99969.63;5029955;28;20259;-68
2023/09/08 08:26:10;;;;;;;4.30;4.00;;;;;;;32.72;34.09;99965.84;5031891;28;20205;-67
2023/09/08 08:28:36;;;;;;;5.72;4.28;;;;;;;32.94;33.37;99965.59;5034091;28;20193;-67
2023/09/08 08:31:03;;;;;;;5.55;4.05;;;;;;;33.23;32.39;99962.84;5034505;28;20193;-68
2023/09/08 08:33:30;;;;;;;6.40;3.70;;;;;;;33.52;32.04;99963.97;5033655;28;20316;-68
2023/09/08 08:35:58;;;;;;;3.72;3.05;;;;;;;33.82;31.63;99965.53;5033638;28;20237;-68
2023/09/08 08:38:25;;;;;;;6.63;3.60;;;;;;;34.11;31.17;99957.94;5033387;28;20258;-68
2023/09/08 08:40:52;;;;;;;10.27;3.75;;;;;;;34.39;30.71;99950.69;5033577;28;20194;-68
2023/09/08 08:43:19;;;;;;;3.92;3.58;;;;;;;34.43;30.98;99950.81;5033418;28;20270;-68
2023/09/08 08:45:48;;;;;;;4.30;3.80;;;;;;;34.22;30.18;99953.63;5033565;28;20597;-68
2023/09/08 08:48:19;;;;;;;9.18;3.60;;;;;;;33.97;29.87;99951.91;5032955;28;20193;-68
2023/09/08 08:50:45;;;;;;;4.20;3.53;;;;;;;34.05;29.71;99950.22;5033440;28;20249;-68
2023/09/08 08:53:13;;;;;;;5.10;3.60;;;;;;;34.39;30.17;99956.22;5033173;28;20330;-68
2023/09/08 08:55:41;;;;;;;3.80;3.10;;;;;;;34.28;28.99;99954.19;5033407;28;20280;-68
2023/09/08 08:58:08;;;;;;;4.47;3.38;;;;;;;34.16;28.31;99945.91;5032781;28;20667;-68
2023/09/08 09:00:37;;;;;;;3.85;3.53;;;;;;;34.23;29.11;99946.13;5032974;28;20842;-68
2023/09/08 09:03:06;;;;;;;3.95;3.20;;;;;;;33.69;29.74;99947.28;5033102;28;20570;-68
2023/09/08 09:05:35;;;;;;;7.47;3.80;;;;;;;33.68;29.64;99959.47;5032879;28;20248;-68
2023/09/08 09:08:03;;;;;;;4.22;3.15;;;;;;;33.88;29.37;99940.16;5021809;28;20222;-68
2023/09/08 09:10:32;;;;;;;3.70;3.40;;;;;;;33.76;29.07;99948.34;5012934;28;20233;-68
2023/09/08 09:12:59;;;;;;;3.95;3.65;;;;;;;33.63;29.41;99943.13;5013100;28;20260;-68
2023/09/08 09:15:32;;;;;;;4.00;3.70;;;;;;;33.66;29.32;99936.94;5012981;28;20198;-68
2023/09/08 09:18:04;;;;;;;3.40;3.15;;;;;;;33.90;28.65;99928.78;5013398;28;20270;-68
2023/09/08 09:20:30;;;;;;;3.15;2.95;;;;;;;34.06;29.42;99946.31;5012740;28;20642;-68
2023/09/08 09:22:57;;;;;;;5.80;3.38;;;;;;;34.24;28.23;99942.22;5012710;28;20256;-68
2023/09/08 09:25:25;;;;;;;4.65;3.40;;;;;;;34.30;28.38;99930.66;5013218;28;20288;-68
2023/09/08 09:27:54;;;;;;;4.18;3.38;;;;;;;34.36;28.39;99928.47;5013433;28;20197;-68
2023/09/08 09:30:22;;;;;;;5.22;3.60;;;;;;;34.28;29.15;99929.34;5012929;28;20252;-68
2023/09/08 09:32:49;;;;;;;3.95;3.17;;;;;;;34.31;29.15;99912.16;5012482;28;20237;-68
2023/09/08 09:35:17;;;;;;;4.05;3.38;;;;;;;34.50;29.19;99932.53;5011920;28;20248;-68
2023/09/08 09:37:43;;;;;;;3.25;2.97;;;;;;;34.41;28.06;99922.78;5012600;28;20276;-68
2023/09/08 09:40:11;;;;;;;4.20;3.03;;;;;;;34.64;27.76;99926.69;5012483;28;20252;-68
2023/09/08 09:42:39;;;;;;;4.28;3.15;;;;;;;34.57;27.47;99921.72;5013246;28;20233;-68
2023/09/08 09:45:08;;;;;;;4.85;3.20;;;;;;;34.71;27.33;99924.97;5012510;28;20222;-68
2023/09/08 09:47:35;;;;;;;6.00;2.92;;;;;;;34.66;27.07;99913.34;5013057;28;20292;-68
2023/09/08 09:50:03;;;;;;;3.83;3.35;;;;;;;34.65;27.07;99912.53;5012366;28;20285;-68
2023/09/08 09:52:31;;;;;;;3.30;3.10;;;;;;;34.71;26.85;99913.13;5012593;28;20277;-68
2023/09/08 09:54:59;;;;;;;3.58;2.75;;;;;;;34.42;27.55;99896.78;5012432;28;20202;-68
2023/09/08 09:57:26;;;;;;;3.53;3.00;;;;;;;34.55;27.77;99901.16;5012607;28;20193;-68
2023/09/08 09:59:55;;;;;;;4.70;3.30;;;;;;;34.70;27.80;99894.94;5012140;28;20190;-68
2023/09/08 10:02:25;;;;;;;3.67;3.45;;;;;;;34.81;28.08;99907.16;5012325;28;20689;-68
2023/09/08 10:04:52;;;;;;;3.30;3.00;;;;;;;34.52;27.29;99893.56;5012620;28;20409;-68
2023/09/08 10:07:19;;;;;;;4.43;3.13;;;;;;;34.47;27.72;99891.03;5017289;28;20193;-68
2023/09/08 10:09:46;;;;;;;3.25;3.03;;;;;;;34.55;27.61;99892.88;5031549;28;20267;-67
2023/09/08 10:12:16;;;;;;;5.15;2.90;;;;;;;34.74;27.37;99885.63;5031509;28;20661;-68
2023/09/08 10:14:43;;;;;;;3.35;3.15;;;;;;;34.47;27.02;99868.94;5031883;28;20272;-68
2023/09/08 10:17:13;;;;;;;6.25;3.72;;;;;;;34.01;27.75;99872.06;5031967;28;20280;-68
2023/09/08 10:19:42;;;;;;;4.85;3.17;;;;;;;33.93;28.38;99871.03;5032033;28;20205;-68
2023/09/08 10:22:12;;;;;;;3.03;2.60;;;;;;;33.61;28.44;99866.31;5031574;28;20197;-68
2023/09/08 10:24:41;;;;;;;3.63;2.78;;;;;;;33.50;28.63;99862.34;5031495;28;20304;-68
2023/09/08 10:27:10;;;;;;;7.15;3.13;;;;;;;33.48;28.38;99863.81;5032181;28;20292;-68
2023/09/08 10:29:37;;;;;;;3.70;3.00;;;;;;;33.55;28.58;99861.34;5031720;28;20202;-68
2023/09/08 10:32:06;;;;;;;3.35;3.05;;;;;;;33.57;28.57;99856.28;5032033;28;20201;-67
2023/09/08 10:34:34;;;;;;;6.15;3.60;;;;;;;33.68;28.63;99863.00;5031593;28;20836;-68
2023/09/08 10:37:02;;;;;;;3.58;3.28;;;;;;;33.77;28.23;99855.44;5032061;28;20197;-68
2023/09/08 10:39:35;;;;;;;3.83;3.20;;;;;;;33.97;27.83;99860.91;5031017;28;20713;-68
2023/09/08 10:42:24;;;;;;;3.05;2.85;;;;;;;34.05;27.81;99848.97;5031289;28;20600;-68
2023/09/08 10:45:04;;;;;;;5.97;2.97;;;;;;;34.06;27.48;99847.03;5031151;28;20312;-68
2023/09/08 10:47:42;;;;;;;10.18;3.53;;;;;;;33.95;27.85;99840.34;5030936;28;20197;-68
2023/09/08 10:50:17;;;;;;;3.47;3.17;;;;;;;33.61;28.91;99841.50;5030472;28;20185;-68
2023/09/08 10:52:45;;;;;;;5.13;3.05;;;;;;;33.45;29.40;99836.94;5031301;28;20189;-68
2023/09/08 10:55:13;;;;;;;3.65;2.88;;;;;;;33.20;29.42;99836.78;5030713;28;20669;-68
2023/09/08 10:57:46;;;;;;;8.48;3.35;;;;;;;32.75;30.90;99835.03;5031372;28;20628;-68
2023/09/08 11:00:20;;;;;;;7.88;3.67;;;;;;;32.87;30.04;99838.66;5030657;28;20278;-68
2023/09/08 11:02:50;;;;;;;2.65;2.55;;;;;;;33.04;29.09;99833.03;5030931;28;20198;-68
2023/09/08 11:05:18;;;;;;;3.25;2.78;;;;;;;32.92;28.91;99830.22;5030608;28;20252;-68
2023/09/08 11:07:47;;;;;;;3.38;3.10;;;;;;;32.72;29.68;99819.16;5022175;28;20202;-68
2023/09/08 11:10:14;;;;;;;4.47;3.10;;;;;;;32.44;30.06;99809.78;5011009;28;20733;-68
2023/09/08 11:12:41;;;;;;;7.50;3.33;;;;;;;32.20;31.58;99815.84;5010853;28;20194;-68
2023/09/08 11:15:09;;;;;;;6.17;3.30;;;;;;;32.05;30.89;99810.13;5010751;28;20194;-68
2023/09/08 11:17:39;;;;;;;5.83;3.20;;;;;;;32.02;31.00;99806.09;5010784;28;20256;-67
2023/09/08 11:20:08;;;;;;;4.40;3.50;;;;;;;31.97;30.24;99803.50;5011010;28;20287;-68
2023/09/08 11:22:36;;;;;;;5.50;3.13;;;;;;;31.60;31.35;99804.22;5010861;28;20217;-68
2023/09/08 11:25:07;;;;;;;3.20;3.00;;;;;;;31.44;30.89;99802.31;5010963;28;20221;-67
2023/09/08 11:27:34;;;;;;;3.57;3.23;;;;;;;31.36;31.53;99798.44;5011199;28;20683;-67
2023/09/08 11:30:02;;;;;;;4.00;3.43;;;;;;;31.32;33.00;99794.72;5010853;28;20328;-67